Time;durP1;ratioP1;P1;durP2;ratioP2;P2;SDS_P1;SDS_P2;PMS_P1;PMS_P2;Temp;Humidity;BMP_temperature;BMP_pressure;BME280_temperature;BME280_humidity;BME280_pressure;Samples;Min_cycle;Max_cycle;Signal;HPM_P1;HPM_P2
2021/08/25 00:02:10;;;;;;;7.20;2.13;;;16.50;99.90;;;;;;5032333;28;20029;-59
2021/08/25 00:04:40;;;;;;;3.40;2.10;;;16.50;99.90;;;;;;5032789;28;20360;-58
2021/08/25 00:07:09;;;;;;;4.32;2.00;;;16.50;99.90;;;;;;5032205;28;20482;-59
2021/08/25 00:09:36;;;;;;;2.78;1.90;;;16.40;99.90;;;;;;5032614;28;20021;-59
2021/08/25 00:12:03;;;;;;;4.18;1.70;;;16.40;99.90;;;;;;5032283;28;20049;-61
2021/08/25 00:14:29;;;;;;;4.50;1.92;;;16.40;99.90;;;;;;5032757;28;20059;-61
2021/08/25 00:16:55;;;;;;;3.42;1.90;;;16.40;99.90;;;;;;5031991;28;20033;-60
2021/08/25 00:19:20;;;;;;;5.75;1.77;;;16.50;99.90;;;;;;5032807;28;20041;-60
2021/08/25 00:21:46;;;;;;;4.20;2.00;;;16.40;99.90;;;;;;5047302;28;20454;-60
2021/08/25 00:24:12;;;;;;;3.03;1.88;;;16.40;99.90;;;;;;5032577;28;20033;-61
2021/08/25 00:26:37;;;;;;;4.15;1.77;;;16.30;99.90;;;;;;5031789;28;20061;-60
2021/08/25 00:29:03;;;;;;;5.07;1.85;;;16.30;99.90;;;;;;5032353;28;20431;-61
2021/08/25 00:31:29;;;;;;;5.13;1.70;;;16.30;99.90;;;;;;5030405;28;20033;-60
2021/08/25 00:33:54;;;;;;;4.10;1.80;;;16.20;99.90;;;;;;5031880;28;20069;-60
2021/08/25 00:36:20;;;;;;;4.93;2.13;;;16.20;99.90;;;;;;5031418;28;20079;-60
2021/08/25 00:38:46;;;;;;;4.43;2.30;;;16.10;99.90;;;;;;5032386;28;20096;-60
2021/08/25 00:41:11;;;;;;;4.00;2.00;;;16.10;99.90;;;;;;5031198;28;20040;-62
2021/08/25 00:43:37;;;;;;;4.05;2.13;;;16.10;99.90;;;;;;5032040;28;20080;-61
2021/08/25 00:46:06;;;;;;;4.32;2.15;;;16.10;99.90;;;;;;5031652;28;20033;-61
2021/08/25 00:48:31;;;;;;;3.35;2.10;;;16.10;99.90;;;;;;5032033;28;20036;-60
2021/08/25 00:50:57;;;;;;;3.38;1.88;;;16.00;99.90;;;;;;5030998;28;20025;-61
2021/08/25 00:53:23;;;;;;;5.00;2.03;;;16.00;99.90;;;;;;5032109;28;20095;-61
2021/08/25 00:55:52;;;;;;;2.50;1.90;;;16.00;99.90;;;;;;5045062;28;20029;-61
2021/08/25 00:58:18;;;;;;;4.32;2.08;;;15.90;99.90;;;;;;5032297;28;20061;-61
2021/08/25 01:01:12;;;;;;;4.15;2.03;;;15.90;99.90;;;;;;5030907;28;20057;-61
2021/08/25 01:03:54;;;;;;;7.30;2.38;;;15.80;99.90;;;;;;5033156;28;20554;-60
2021/08/25 01:06:25;;;;;;;5.13;1.90;;;15.70;99.90;;;;;;5031146;28;20018;-60
2021/08/25 01:08:51;;;;;;;4.40;2.20;;;15.70;99.90;;;;;;5031715;28;20041;-59
2021/08/25 01:11:17;;;;;;;15.25;2.90;;;15.70;99.90;;;;;;5030496;28;20030;-59
2021/08/25 01:13:44;;;;;;;3.95;2.00;;;15.60;99.90;;;;;;5031895;28;20483;-60
2021/08/25 01:16:10;;;;;;;6.15;2.33;;;15.60;99.90;;;;;;5030800;28;20033;-61
2021/08/25 01:18:38;;;;;;;7.60;2.78;;;15.60;99.90;;;;;;5031824;28;20029;-60
2021/08/25 01:21:05;;;;;;;3.88;2.40;;;15.50;99.90;;;;;;5029364;28;20422;-61
2021/08/25 01:23:33;;;;;;;5.35;2.75;;;15.60;99.90;;;;;;5031721;28;20056;-60
2021/08/25 01:26:00;;;;;;;4.63;2.38;;;15.50;99.90;;;;;;5030698;28;20052;-61
2021/08/25 01:28:28;;;;;;;2.63;2.20;;;15.50;99.90;;;;;;5031108;28;20038;-61
2021/08/25 01:30:54;;;;;;;3.75;2.40;;;15.60;99.90;;;;;;5030612;28;20112;-59
2021/08/25 01:33:26;;;;;;;4.45;2.22;;;15.60;99.90;;;;;;5060526;28;20396;-59
2021/08/25 01:35:52;;;;;;;3.78;2.40;;;15.50;99.90;;;;;;5030845;28;20033;-61
2021/08/25 01:38:53;;;;;;;8.02;2.50;;;15.50;99.90;;;;;;5030814;28;20037;-61
2021/08/25 01:41:20;;;;;;;9.48;4.38;;;15.50;99.90;;;;;;5030434;28;20033;-60
2021/08/25 01:43:46;;;;;;;7.07;3.15;;;15.60;99.90;;;;;;5031042;28;20033;-60
2021/08/25 01:46:26;;;;;;;4.20;2.60;;;15.60;99.90;;;;;;5029390;28;20037;-60
2021/08/25 01:48:54;;;;;;;12.75;5.53;;;15.60;99.90;;;;;;5031009;28;20037;-60
2021/08/25 01:51:20;;;;;;;6.40;2.92;;;15.50;99.90;;;;;;5030209;28;20464;-59
2021/08/25 01:53:46;;;;;;;6.25;2.65;;;15.60;99.90;;;;;;5030964;28;20026;-60
2021/08/25 01:56:12;;;;;;;4.57;2.85;;;15.60;99.90;;;;;;5030382;28;20040;-59
2021/08/25 01:58:39;;;;;;;6.28;2.60;;;15.70;99.90;;;;;;5031097;28;20108;-60
2021/08/25 02:01:05;;;;;;;3.67;2.10;;;15.70;99.90;;;;;;5030271;28;20029;-61
2021/08/25 02:03:31;;;;;;;4.68;2.45;;;15.70;99.90;;;;;;5031286;28;20364;-59
2021/08/25 02:05:57;;;;;;;5.97;2.30;;;15.70;99.90;;;;;;5030154;28;20026;-59
2021/08/25 02:08:22;;;;;;;5.65;2.38;;;15.70;99.90;;;;;;5031110;28;20395;-59
2021/08/25 02:10:48;;;;;;;5.05;2.42;;;15.70;99.90;;;;;;5030555;28;20030;-60
2021/08/25 02:13:14;;;;;;;5.78;2.20;;;15.60;99.90;;;;;;5030349;28;20065;-60
2021/08/25 02:15:39;;;;;;;3.13;2.20;;;15.50;99.90;;;;;;5031072;28;20104;-60
2021/08/25 02:18:05;;;;;;;5.32;2.35;;;15.50;99.90;;;;;;5034342;28;20036;-60
2021/08/25 02:20:32;;;;;;;6.40;2.75;;;15.50;99.90;;;;;;5040351;28;20088;-61
2021/08/25 02:22:57;;;;;;;3.78;2.33;;;15.50;99.90;;;;;;5029770;28;20097;-61
2021/08/25 02:25:23;;;;;;;4.35;2.03;;;15.40;99.90;;;;;;5030904;28;20037;-61
2021/08/25 02:27:49;;;;;;;4.82;2.45;;;15.40;99.90;;;;;;5029745;28;20056;-61
2021/08/25 02:30:15;;;;;;;4.10;2.45;;;15.50;99.90;;;;;;5030850;28;20014;-62
2021/08/25 02:32:42;;;;;;;6.35;2.60;;;15.40;99.90;;;;;;5029620;28;20034;-60
2021/08/25 02:35:11;;;;;;;4.43;2.63;;;15.40;99.90;;;;;;5030474;28;20034;-60
2021/08/25 02:37:37;;;;;;;4.03;2.25;;;15.30;99.90;;;;;;5029813;28;20037;-60
2021/08/25 02:40:06;;;;;;;3.25;2.10;;;15.30;99.90;;;;;;5030513;28;20036;-61
2021/08/25 02:42:31;;;;;;;5.80;2.50;;;15.20;99.90;;;;;;5030044;28;20045;-61
2021/08/25 02:44:57;;;;;;;3.95;2.42;;;15.20;99.90;;;;;;5030502;28;20059;-63
2021/08/25 02:47:23;;;;;;;6.57;2.38;;;15.10;99.90;;;;;;5029734;28;20437;-60
2021/08/25 02:49:48;;;;;;;5.90;2.17;;;15.10;99.90;;;;;;5030673;28;20119;-60
2021/08/25 02:52:14;;;;;;;4.50;2.05;;;15.00;99.90;;;;;;5029457;28;20033;-61
2021/08/25 02:54:40;;;;;;;3.42;2.20;;;15.00;99.90;;;;;;5030544;28;20472;-61
2021/08/25 02:57:05;;;;;;;4.82;2.25;;;15.00;99.90;;;;;;5030775;28;20445;-61
2021/08/25 02:59:31;;;;;;;4.63;2.20;;;14.90;99.90;;;;;;5034091;28;20044;-59
2021/08/25 03:01:57;;;;;;;4.25;2.30;;;14.90;99.90;;;;;;5033237;28;20468;-60
2021/08/25 03:04:22;;;;;;;4.20;2.10;;;14.80;99.90;;;;;;5033983;28;20032;-60
2021/08/25 03:06:48;;;;;;;7.05;2.38;;;14.80;99.90;;;;;;5033574;28;20044;-59
2021/08/25 03:09:14;;;;;;;7.65;2.47;;;14.80;99.90;;;;;;5033779;28;20099;-59
2021/08/25 03:11:39;;;;;;;6.97;3.00;;;14.70;99.90;;;;;;5033051;28;20034;-60
2021/08/25 03:14:05;;;;;;;5.13;2.20;;;14.70;99.90;;;;;;5034144;28;20033;-60
2021/08/25 03:16:31;;;;;;;4.78;2.35;;;14.60;99.90;;;;;;5033302;28;20029;-61
2021/08/25 03:18:57;;;;;;;4.90;2.28;;;14.60;99.90;;;;;;5033581;28;20444;-60
2021/08/25 03:21:23;;;;;;;7.10;2.22;;;14.60;99.90;;;;;;5033281;28;20057;-60
2021/08/25 03:23:48;;;;;;;3.72;2.20;;;14.60;99.90;;;;;;5033743;28;20456;-61
2021/08/25 03:26:14;;;;;;;3.83;2.20;;;14.70;99.90;;;;;;5033640;28;20411;-60
2021/08/25 03:28:39;;;;;;;3.65;2.40;;;14.60;99.90;;;;;;5033064;28;20048;-58
2021/08/25 03:31:05;;;;;;;3.33;2.25;;;14.60;99.90;;;;;;5033516;28;20112;-60
2021/08/25 03:33:31;;;;;;;3.85;2.22;;;14.60;99.90;;;;;;5032868;28;20029;-60
2021/08/25 03:35:56;;;;;;;4.75;2.42;;;14.60;99.90;;;;;;5033652;28;20460;-59
2021/08/25 03:38:22;;;;;;;4.43;2.40;;;14.60;99.90;;;;;;5032447;28;20029;-59
2021/08/25 03:40:48;;;;;;;6.40;2.90;;;14.70;99.90;;;;;;5033462;28;20104;-61
2021/08/25 03:43:13;;;;;;;8.52;2.75;;;14.70;99.90;;;;;;5032458;28;20036;-62
2021/08/25 03:45:39;;;;;;;4.70;2.60;;;14.70;99.90;;;;;;5033522;28;20120;-62
2021/08/25 03:48:05;;;;;;;8.40;2.45;;;14.70;99.90;;;;;;5032439;28;20051;-61
2021/08/25 03:50:31;;;;;;;7.68;3.03;;;14.80;99.90;;;;;;5038843;28;20036;-60
2021/08/25 03:52:56;;;;;;;6.13;2.53;;;14.70;99.90;;;;;;5040748;28;20042;-60
2021/08/25 03:55:22;;;;;;;7.63;2.53;;;14.70;99.90;;;;;;5033077;28;20084;-60
2021/08/25 03:57:49;;;;;;;6.40;3.22;;;14.70;99.90;;;;;;5032283;28;20029;-59
2021/08/25 04:00:15;;;;;;;3.83;2.80;;;14.80;99.90;;;;;;5023363;28;20060;-59
2021/08/25 04:02:42;;;;;;;4.90;2.78;;;14.80;99.90;;;;;;5032133;28;20056;-61
2021/08/25 04:05:08;;;;;;;4.47;2.85;;;14.80;99.90;;;;;;5033005;28;20112;-61
2021/08/25 04:07:34;;;;;;;5.30;3.00;;;14.80;99.90;;;;;;5046117;28;20018;-62
2021/08/25 04:10:00;;;;;;;6.47;3.10;;;14.80;99.90;;;;;;5031871;28;20029;-59
2021/08/25 04:12:26;;;;;;;9.32;3.40;;;14.80;99.90;;;;;;5032008;28;20029;-61
2021/08/25 04:14:51;;;;;;;10.88;3.72;;;14.80;99.90;;;;;;5032998;28;20037;-60
2021/08/25 04:17:17;;;;;;;7.30;3.30;;;14.80;99.90;;;;;;5031737;28;20529;-59
2021/08/25 04:19:43;;;;;;;9.50;3.80;;;14.80;99.90;;;;;;5032869;28;20029;-59
2021/08/25 04:22:09;;;;;;;7.25;3.33;;;14.80;99.90;;;;;;5031741;28;20503;-61
2021/08/25 04:24:36;;;;;;;6.78;3.40;;;14.80;99.90;;;;;;5032585;28;20052;-60
2021/08/25 04:27:02;;;;;;;11.85;3.90;;;14.80;99.90;;;;;;5031748;28;21758;-58
2021/08/25 04:29:28;;;;;;;7.85;3.75;;;14.80;99.90;;;;;;5032258;28;20054;-60
2021/08/25 04:31:53;;;;;;;5.47;3.22;;;14.80;99.90;;;;;;5031527;28;20041;-59
2021/08/25 04:34:19;;;;;;;9.57;3.90;;;14.80;99.90;;;;;;5032079;28;20103;-59
2021/08/25 04:36:45;;;;;;;10.00;3.40;;;14.80;99.90;;;;;;5032141;28;20484;-60
2021/08/25 04:39:10;;;;;;;8.90;3.60;;;14.80;99.90;;;;;;5031603;28;20026;-59
2021/08/25 04:41:36;;;;;;;6.75;3.78;;;14.90;99.90;;;;;;5032518;28;20100;-59
2021/08/25 04:44:02;;;;;;;6.72;3.72;;;14.90;99.90;;;;;;5033731;28;20057;-59
2021/08/25 04:46:27;;;;;;;8.18;3.40;;;14.90;99.90;;;;;;5038585;28;20392;-60
2021/08/25 04:48:53;;;;;;;8.18;3.45;;;14.90;99.90;;;;;;5031304;28;20108;-60
2021/08/25 04:51:18;;;;;;;8.40;3.60;;;14.90;99.90;;;;;;5032172;28;20454;-60
2021/08/25 04:53:44;;;;;;;8.02;3.15;;;14.90;99.90;;;;;;5031297;28;20084;-60
2021/08/25 04:56:10;;;;;;;6.00;3.50;;;15.00;99.90;;;;;;5031951;28;20033;-58
2021/08/25 04:58:36;;;;;;;10.20;3.85;;;15.00;99.90;;;;;;5041239;28;20103;-63
2021/08/25 05:01:05;;;;;;;7.15;3.80;;;15.00;99.90;;;;;;5035939;28;20383;-59
2021/08/25 05:03:31;;;;;;;8.38;4.15;;;15.00;99.90;;;;;;5031204;28;20025;-61
2021/08/25 05:05:56;;;;;;;4.43;3.33;;;15.00;99.90;;;;;;5031533;28;20498;-62
2021/08/25 05:08:22;;;;;;;9.40;3.67;;;15.00;99.90;;;;;;5031309;28;20036;-62
2021/08/25 05:10:48;;;;;;;5.82;3.15;;;15.00;99.90;;;;;;5031967;28;20060;-58
2021/08/25 05:13:14;;;;;;;6.78;3.00;;;15.00;99.90;;;;;;5030583;28;20060;-59
2021/08/25 05:15:46;;;;;;;8.65;3.10;;;15.00;99.90;;;;;;5031748;28;20021;-60
2021/08/25 05:18:12;;;;;;;4.45;3.00;;;15.00;99.90;;;;;;5030857;28;20075;-59
2021/08/25 05:20:38;;;;;;;5.80;2.70;;;15.00;99.90;;;;;;5031280;28;20041;-59
2021/08/25 05:23:04;;;;;;;10.00;3.65;;;15.10;99.90;;;;;;5030629;28;20423;-59
2021/08/25 05:25:30;;;;;;;6.97;3.42;;;15.10;99.90;;;;;;5031423;28;20036;-60
2021/08/25 05:27:55;;;;;;;4.57;2.47;;;15.10;99.90;;;;;;5030620;28;20046;-59
2021/08/25 05:30:22;;;;;;;4.97;2.63;;;15.10;99.90;;;;;;5031490;28;20079;-59
2021/08/25 05:32:54;;;;;;;5.30;2.65;;;15.10;99.90;;;;;;5030755;28;20116;-59
2021/08/25 05:35:20;;;;;;;6.95;2.80;;;15.00;99.90;;;;;;5031293;28;20037;-59
2021/08/25 05:37:47;;;;;;;5.57;2.83;;;15.10;99.90;;;;;;5030638;28;20074;-61
2021/08/25 05:40:14;;;;;;;12.75;2.80;;;15.00;99.90;;;;;;5031010;28;20083;-60
2021/08/25 05:42:44;;;;;;;5.32;2.50;;;15.00;99.90;;;;;;5030539;28;20091;-58
2021/08/25 05:45:10;;;;;;;6.35;2.35;;;15.10;99.90;;;;;;5031097;28;20033;-60
2021/08/25 05:47:36;;;;;;;7.30;2.67;;;15.00;99.90;;;;;;5037061;28;20029;-60
2021/08/25 05:50:03;;;;;;;9.63;2.80;;;15.10;99.90;;;;;;5038367;28;20090;-60
2021/08/25 05:52:29;;;;;;;5.10;2.25;;;15.10;99.90;;;;;;5030247;28;20033;-60
2021/08/25 05:54:54;;;;;;;6.68;2.95;;;15.10;99.90;;;;;;5031160;28;20033;-59
2021/08/25 05:57:20;;;;;;;6.28;2.60;;;15.10;99.90;;;;;;5030598;28;20041;-59
2021/08/25 05:59:46;;;;;;;6.65;3.00;;;15.20;99.90;;;;;;5039285;28;20054;-59
2021/08/25 06:02:11;;;;;;;7.43;3.35;;;15.20;99.90;;;;;;5036376;28;20033;-58
2021/08/25 06:04:37;;;;;;;7.20;3.25;;;15.30;99.90;;;;;;5030038;28;20112;-61
2021/08/25 06:07:08;;;;;;;5.05;2.70;;;15.30;99.90;;;;;;5031044;28;20052;-60
2021/08/25 06:09:33;;;;;;;6.32;3.00;;;15.30;99.90;;;;;;5029804;28;20496;-60
2021/08/25 06:11:59;;;;;;;9.38;3.80;;;15.40;99.90;;;;;;5046362;28;20061;-60
2021/08/25 06:14:25;;;;;;;6.53;3.33;;;15.40;99.90;;;;;;5030110;28;20468;-60
2021/08/25 06:16:50;;;;;;;5.93;2.95;;;15.50;99.90;;;;;;5030677;28;20481;-59
2021/08/25 06:19:16;;;;;;;6.28;3.20;;;15.50;99.90;;;;;;5029979;28;20499;-60
2021/08/25 06:21:46;;;;;;;8.68;3.63;;;15.50;99.90;;;;;;5049354;28;20029;-62
2021/08/25 06:24:12;;;;;;;10.98;3.50;;;15.50;99.90;;;;;;5040206;28;20026;-60
2021/08/25 06:26:38;;;;;;;8.35;3.60;;;15.60;99.90;;;;;;5030619;28;20045;-60
2021/08/25 06:29:04;;;;;;;8.48;3.38;;;15.70;99.90;;;;;;5029963;28;20046;-61
2021/08/25 06:31:30;;;;;;;8.15;2.70;;;15.80;99.90;;;;;;5031042;28;20030;-59
2021/08/25 06:33:56;;;;;;;6.63;3.05;;;15.80;99.90;;;;;;5026848;28;20033;-59
2021/08/25 06:36:21;;;;;;;4.18;2.70;;;15.70;99.90;;;;;;5034843;28;20036;-60
2021/08/25 06:38:47;;;;;;;5.35;2.60;;;15.70;99.90;;;;;;5033642;28;20404;-60
2021/08/25 06:41:13;;;;;;;8.15;2.88;;;15.80;99.90;;;;;;5034627;28;20045;-61
2021/08/25 06:43:39;;;;;;;5.47;2.63;;;15.90;99.90;;;;;;5033401;28;20125;-59
2021/08/25 06:46:05;;;;;;;3.47;2.55;;;16.00;99.90;;;;;;5034325;28;20048;-61
2021/08/25 06:48:31;;;;;;;6.68;2.78;;;16.10;99.90;;;;;;5033415;28;20112;-58
2021/08/25 06:50:56;;;;;;;5.60;2.67;;;16.00;99.90;;;;;;5034249;28;20032;-61
2021/08/25 06:53:22;;;;;;;5.47;2.63;;;15.90;99.90;;;;;;5033660;28;20045;-59
2021/08/25 06:55:48;;;;;;;5.63;3.13;;;16.00;99.90;;;;;;5034167;28;20456;-60
2021/08/25 06:58:14;;;;;;;7.68;3.60;;;16.00;99.90;;;;;;5033405;28;20033;-60
2021/08/25 07:00:39;;;;;;;6.82;3.10;;;16.00;99.90;;;;;;5034108;28;20030;-60
2021/08/25 07:03:05;;;;;;;10.00;3.53;;;16.00;99.90;;;;;;5033871;28;20063;-60
2021/08/25 07:05:31;;;;;;;6.50;3.08;;;16.10;99.90;;;;;;5033870;28;20100;-62
2021/08/25 07:07:57;;;;;;;4.18;2.80;;;16.10;99.90;;;;;;5033262;28;20110;-60
2021/08/25 07:10:23;;;;;;;4.35;2.45;;;16.10;99.90;;;;;;5033809;28;20037;-60
2021/08/25 07:12:49;;;;;;;7.10;2.28;;;16.20;99.90;;;;;;5033624;28;20060;-59
2021/08/25 07:15:18;;;;;;;3.25;1.88;;;16.20;99.90;;;;;;5033699;28;20460;-61
2021/08/25 07:17:47;;;;;;;5.53;2.15;;;16.20;99.90;;;;;;5033798;28;20029;-60
2021/08/25 07:20:14;;;;;;;5.38;3.03;;;16.30;99.90;;;;;;5033042;28;20033;-60
2021/08/25 07:22:40;;;;;;;2.80;2.33;;;16.60;99.90;;;;;;5033863;28;20084;-59
2021/08/25 07:25:07;;;;;;;6.25;3.25;;;16.70;99.90;;;;;;5032759;28;20037;-60
2021/08/25 07:27:34;;;;;;;6.22;2.72;;;16.70;99.90;;;;;;5024445;28;20084;-62
2021/08/25 07:29:59;;;;;;;3.65;2.45;;;16.80;99.90;;;;;;5028599;28;20030;-59
2021/08/25 07:32:25;;;;;;;4.82;2.70;;;16.80;99.90;;;;;;5041233;28;20427;-59
2021/08/25 07:34:51;;;;;;;5.82;2.70;;;16.90;99.90;;;;;;5039075;28;20034;-59
2021/08/25 07:37:17;;;;;;;8.82;2.53;;;16.90;99.90;;;;;;5033305;28;20141;-61
2021/08/25 07:39:43;;;;;;;3.80;2.03;;;17.20;99.90;;;;;;5032579;28;20489;-60
2021/08/25 07:42:08;;;;;;;9.32;2.20;;;17.20;99.90;;;;;;5033211;28;20113;-59
2021/08/25 07:44:34;;;;;;;10.23;3.47;;;17.30;99.90;;;;;;5031067;28;20093;-61
2021/08/25 07:47:00;;;;;;;4.88;1.77;;;17.30;99.90;;;;;;5033144;28;20040;-61
2021/08/25 07:49:25;;;;;;;2.17;1.70;;;17.30;99.90;;;;;;5032531;28;20022;-58
2021/08/25 07:51:51;;;;;;;2.80;1.60;;;17.40;99.90;;;;;;5033025;28;20064;-59
2021/08/25 07:54:17;;;;;;;7.00;1.90;;;17.40;99.90;;;;;;5032033;28;20453;-59
2021/08/25 07:56:43;;;;;;;4.90;1.60;;;17.60;99.90;;;;;;5033381;28;20476;-58
2021/08/25 07:59:08;;;;;;;1.10;1.00;;;18.10;99.90;;;;;;5030932;28;20457;-59
2021/08/25 08:01:34;;;;;;;2.50;1.50;;;18.20;99.90;;;;;;5032913;28;20025;-59
2021/08/25 08:04:00;;;;;;;1.70;1.00;;;18.20;99.90;;;;;;5032064;28;20468;-60
2021/08/25 08:06:26;;;;;;;1.30;1.05;;;18.20;99.90;;;;;;5033156;28;20025;-61
2021/08/25 08:08:52;;;;;;;1.92;1.15;;;18.40;99.90;;;;;;5031828;28;20447;-60
2021/08/25 08:11:17;;;;;;;3.03;1.00;;;18.60;99.90;;;;;;5032317;28;20108;-60
2021/08/25 08:13:43;;;;;;;1.20;0.60;;;18.70;99.90;;;;;;5032204;28;20025;-60
2021/08/25 08:16:09;;;;;;;3.58;0.68;;;18.70;99.90;;;;;;5032973;28;20045;-62
2021/08/25 08:18:40;;;;;;;2.53;1.10;;;18.50;99.90;;;;;;5031973;28;20021;-61
2021/08/25 08:21:06;;;;;;;4.68;1.10;;;18.70;99.90;;;;;;5033141;28;20025;-60
2021/08/25 08:23:32;;;;;;;0.82;0.60;;;18.70;99.90;;;;;;5031850;28;20114;-61
2021/08/25 08:25:58;;;;;;;4.35;1.20;;;18.60;99.90;;;;;;5032504;28;20022;-61
2021/08/25 08:28:24;;;;;;;0.70;0.70;;;18.70;99.90;;;;;;5031976;28;20495;-59
2021/08/25 08:30:50;;;;;;;0.90;0.70;;;18.90;99.90;;;;;;5032237;28;20038;-60
2021/08/25 08:33:16;;;;;;;1.80;0.60;;;19.30;99.90;;;;;;5032104;28;20033;-60
2021/08/25 08:35:42;;;;;;;1.95;0.75;;;19.40;99.90;;;;;;5031745;28;20025;-61
2021/08/25 08:38:07;;;;;;;6.35;1.20;;;19.00;99.90;;;;;;5032570;28;20083;-61
2021/08/25 08:40:34;;;;;;;0.80;0.70;;;18.80;99.90;;;;;;5031310;28;20119;-60
2021/08/25 08:43:08;;;;;;;3.28;1.30;;;18.60;99.90;;;;;;5032255;28;20034;-60
2021/08/25 08:45:39;;;;;;;3.92;0.98;;;18.40;99.90;;;;;;5031155;28;20037;-61
2021/08/25 08:48:07;;;;;;;2.30;1.05;;;18.40;99.90;;;;;;5032150;28;20021;-61
2021/08/25 08:50:37;;;;;;;4.22;0.80;;;18.40;99.90;;;;;;5031217;28;20037;-61
2021/08/25 08:53:05;;;;;;;1.40;0.70;;;18.40;99.90;;;;;;5032013;28;20116;-60
2021/08/25 08:55:31;;;;;;;1.48;0.90;;;18.50;99.90;;;;;;5030789;28;20452;-60
2021/08/25 08:57:57;;;;;;;2.65;1.00;;;18.60;99.90;;;;;;5031827;28;20067;-60
2021/08/25 09:00:22;;;;;;;2.20;0.98;;;18.50;99.90;;;;;;5031149;28;20025;-61
2021/08/25 09:02:48;;;;;;;2.03;0.90;;;18.50;99.90;;;;;;5031940;28;20381;-60
2021/08/25 09:05:28;;;;;;;1.55;0.88;;;18.60;99.90;;;;;;5031219;28;20464;-59
2021/08/25 09:08:00;;;;;;;1.70;1.00;;;18.80;99.90;;;;;;5031435;28;20029;-61
2021/08/25 09:10:36;;;;;;;0.90;0.90;;;19.10;99.90;;;;;;5031023;28;20021;-59
2021/08/25 09:13:12;;;;;;;4.63;1.48;;;19.10;99.90;;;;;;5031381;28;20041;-60
2021/08/25 09:15:43;;;;;;;1.70;1.00;;;19.10;99.90;;;;;;5030879;28;20021;-58
2021/08/25 09:18:12;;;;;;;3.20;1.20;;;19.70;99.90;;;;;;5031420;28;20052;-59
2021/08/25 09:20:48;;;;;;;2.05;1.10;;;20.00;99.90;;;;;;5030601;28;20108;-61
2021/08/25 09:23:22;;;;;;;1.73;0.93;;;20.30;99.90;;;;;;5031705;28;20037;-62
2021/08/25 09:25:56;;;;;;;2.22;1.00;;;20.20;99.90;;;;;;5030708;28;20040;-61
2021/08/25 09:28:30;;;;;;;4.05;1.20;;;20.30;99.90;;;;;;5031021;28;20052;-62
2021/08/25 09:31:07;;;;;;;1.40;1.00;;;20.30;99.90;;;;;;5030396;28;20462;-60
2021/08/25 09:33:36;;;;;;;5.20;1.10;;;20.30;99.90;;;;;;5031064;28;20046;-60
2021/08/25 09:36:07;;;;;;;1.80;0.80;;;20.50;99.90;;;;;;5030448;28;20071;-61
2021/08/25 09:38:35;;;;;;;1.02;0.73;;;20.90;99.90;;;;;;5031034;28;20486;-59
2021/08/25 09:41:10;;;;;;;1.10;0.80;;;21.10;99.90;;;;;;5030402;28;20032;-63
2021/08/25 09:43:44;;;;;;;1.70;0.60;;;21.30;99.90;;;;;;5031122;28;20041;-61
2021/08/25 09:46:25;;;;;;;3.08;1.10;;;21.40;99.90;;;;;;5030885;28;20033;-62
2021/08/25 09:48:53;;;;;;;3.13;0.90;;;21.60;99.90;;;;;;5030606;28;20562;-60
2021/08/25 09:51:37;;;;;;;8.55;1.55;;;21.20;99.90;;;;;;5031047;28;20033;-60
2021/08/25 09:54:11;;;;;;;3.72;1.20;;;21.20;99.90;;;;;;5030411;28;20037;-60
2021/08/25 09:56:38;;;;;;;0.93;0.80;;;21.30;99.90;;;;;;5030977;28;20021;-59
2021/08/25 09:59:12;;;;;;;1.42;1.13;;;21.00;99.90;;;;;;5030379;28;20094;-59
2021/08/25 10:01:38;;;;;;;1.47;0.80;;;20.70;99.90;;;;;;5030929;28;20467;-62
2021/08/25 10:04:06;;;;;;;5.05;1.20;;;20.50;99.90;;;;;;5030210;28;20034;-58
2021/08/25 10:06:35;;;;;;;2.58;1.00;;;20.50;99.90;;;;;;5029961;28;20028;-61
2021/08/25 10:09:03;;;;;;;4.38;1.00;;;20.40;99.90;;;;;;5030420;28;20032;-60
2021/08/25 10:11:31;;;;;;;1.13;0.90;;;20.30;99.90;;;;;;5030269;28;20029;-61
2021/08/25 10:13:57;;;;;;;5.32;1.83;;;20.50;99.90;;;;;;5030494;28;20558;-62
2021/08/25 10:16:36;;;;;;;1.40;1.10;;;20.60;99.90;;;;;;5030208;28;20376;-58
2021/08/25 10:19:26;;;;;;;3.22;1.40;;;20.40;99.90;;;;;;5030536;28;20082;-59
2021/08/25 10:21:54;;;;;;;2.05;1.02;;;20.50;99.90;;;;;;5030722;28;20037;-60
2021/08/25 10:24:21;;;;;;;2.35;1.00;;;20.90;99.90;;;;;;5030605;28;20059;-60
2021/08/25 10:26:58;;;;;;;0.98;0.90;;;20.80;99.90;;;;;;5030229;28;20022;-64
2021/08/25 10:29:28;;;;;;;1.77;0.90;;;20.70;99.90;;;;;;5030032;28;20060;-61
2021/08/25 10:31:54;;;;;;;2.28;1.05;;;20.70;99.90;;;;;;5030101;28;20474;-60
2021/08/25 10:34:25;;;;;;;2.30;1.05;;;20.60;99.90;;;;;;5030224;28;20053;-60
2021/08/25 10:36:51;;;;;;;1.70;0.88;;;20.50;99.90;;;;;;5030557;28;20026;-59
2021/08/25 10:39:29;;;;;;;5.32;1.08;;;20.50;99.90;;;;;;5029277;28;20101;-60
2021/08/25 10:41:56;;;;;;;3.13;1.17;;;20.50;99.90;;;;;;5030460;28;20029;-63
2021/08/25 10:44:37;;;;;;;1.85;1.17;;;20.60;99.90;;;;;;5030096;28;20017;-60
2021/08/25 10:47:04;;;;;;;1.95;0.90;;;20.70;99.90;;;;;;5030366;28;20030;-60
2021/08/25 10:49:31;;;;;;;1.27;0.88;;;20.80;99.90;;;;;;5030107;28;20048;-61
2021/08/25 10:52:18;;;;;;;3.03;1.00;;;20.90;99.90;;;;;;5029969;28;20037;-59
2021/08/25 10:54:49;;;;;;;4.82;0.90;;;20.90;99.90;;;;;;5029821;28;20029;-60
2021/08/25 10:57:20;;;;;;;1.25;1.00;;;20.70;99.90;;;;;;5030250;28;20035;-59
2021/08/25 10:59:47;;;;;;;1.95;1.00;;;20.60;99.90;;;;;;5029718;28;20037;-59
2021/08/25 11:02:13;;;;;;;1.63;1.02;;;20.60;99.90;;;;;;5030298;28;20034;-60
2021/08/25 11:04:39;;;;;;;4.68;1.20;;;20.60;99.90;;;;;;5029636;28;20466;-61
2021/08/25 11:07:10;;;;;;;1.10;0.85;;;20.70;99.90;;;;;;5030078;28;20038;-64
2021/08/25 11:09:43;;;;;;;2.25;0.90;;;20.80;99.90;;;;;;5029345;28;20053;-62
2021/08/25 11:12:21;;;;;;;1.75;1.05;;;20.80;99.90;;;;;;5030023;28;20048;-61
2021/08/25 11:14:52;;;;;;;2.58;0.85;;;21.10;99.90;;;;;;5029330;28;20068;-61
2021/08/25 11:17:19;;;;;;;1.63;0.90;;;21.10;99.90;;;;;;5030227;28;20026;-60
2021/08/25 11:19:47;;;;;;;1.23;0.90;;;21.00;99.90;;;;;;5047165;28;20892;-61
2021/08/25 11:22:19;;;;;;;2.92;1.00;;;20.80;99.90;;;;;;5033744;28;20168;-61
2021/08/25 11:24:50;;;;;;;6.57;1.10;;;20.70;99.90;;;;;;5032935;28;20038;-62
2021/08/25 11:27:25;;;;;;;2.60;1.40;;;20.80;99.90;;;;;;5033483;28;20025;-60
2021/08/25 11:30:12;;;;;;;4.45;1.17;;;21.10;99.90;;;;;;5032835;28;20142;-61
2021/08/25 11:33:11;;;;;;;4.72;1.30;;;21.30;99.90;;;;;;5033598;28;20030;-62
2021/08/25 11:35:44;;;;;;;3.03;1.10;;;21.30;99.90;;;;;;5032528;28;20025;-61
2021/08/25 11:38:18;;;;;;;8.82;1.27;;;21.50;99.90;;;;;;5033553;28;20488;-58
2021/08/25 11:40:46;;;;;;;3.67;2.20;;;21.30;99.90;;;;;;5032414;28;20049;-59
2021/08/25 11:43:15;;;;;;;2.65;1.15;;;21.30;99.90;;;;;;5033607;28;20029;-59
2021/08/25 11:45:43;;;;;;;1.17;0.90;;;21.40;99.90;;;;;;5032428;28;20025;-60
2021/08/25 11:48:09;;;;;;;2.15;1.05;;;21.20;99.90;;;;;;5033517;28;20104;-61
2021/08/25 11:50:38;;;;;;;3.30;1.58;;;21.20;99.90;;;;;;5032246;28;20033;-58
2021/08/25 11:53:15;;;;;;;3.55;1.35;;;21.10;99.90;;;;;;5033248;28;20036;-59
2021/08/25 11:55:41;;;;;;;5.07;1.10;;;21.20;99.90;;;;;;5032337;28;20416;-62
2021/08/25 11:58:22;;;;;;;2.08;1.20;;;21.00;99.90;;;;;;5033313;28;20101;-59
2021/08/25 12:00:47;;;;;;;1.17;0.80;;;21.00;99.90;;;;;;5032294;28;20025;-60
2021/08/25 12:03:13;;;;;;;1.75;0.80;;;21.10;99.90;;;;;;5032972;28;20187;-61
2021/08/25 12:05:49;;;;;;;4.68;1.13;;;21.40;99.90;;;;;;5031980;28;20124;-60
2021/08/25 12:08:15;;;;;;;5.35;1.30;;;21.30;99.90;;;;;;5032905;28;20112;-61
2021/08/25 12:10:42;;;;;;;1.98;1.08;;;21.30;99.90;;;;;;5042885;28;20029;-60
2021/08/25 12:13:10;;;;;;;2.47;1.20;;;21.30;99.90;;;;;;5035985;28;20132;-61
2021/08/25 12:15:46;;;;;;;1.90;1.20;;;21.40;99.90;;;;;;5031966;28;20037;-60
2021/08/25 12:18:13;;;;;;;4.70;1.40;;;21.30;99.90;;;;;;5032669;28;20032;-60
2021/08/25 12:20:42;;;;;;;6.95;1.35;;;21.20;99.90;;;;;;5031759;28;20124;-60
2021/08/25 12:23:10;;;;;;;2.80;0.90;;;21.00;99.90;;;;;;5032573;28;20021;-60
2021/08/25 12:25:38;;;;;;;4.05;1.10;;;21.00;99.90;;;;;;5031534;28;20155;-57
2021/08/25 12:28:05;;;;;;;1.75;1.00;;;20.80;99.90;;;;;;5032566;28;20095;-60
2021/08/25 12:30:37;;;;;;;4.05;1.17;;;21.00;99.90;;;;;;5030693;28;20022;-60
2021/08/25 12:33:05;;;;;;;1.77;1.25;;;21.20;99.90;;;;;;5032104;28;20091;-61
2021/08/25 12:35:35;;;;;;;4.22;1.40;;;21.40;99.90;;;;;;5031336;28;20055;-60
2021/08/25 12:38:03;;;;;;;2.72;1.15;;;21.30;99.90;;;;;;5032155;28;20037;-59
2021/08/25 12:40:29;;;;;;;1.92;1.00;;;21.30;99.90;;;;;;5026653;28;20030;-59
2021/08/25 12:42:57;;;;;;;4.30;1.20;;;21.20;99.90;;;;;;5022117;28;20116;-61
2021/08/25 12:45:23;;;;;;;3.85;1.10;;;21.00;99.90;;;;;;5031351;28;20501;-61
2021/08/25 12:47:50;;;;;;;2.85;1.30;;;21.10;99.90;;;;;;5032107;28;20057;-60
2021/08/25 12:50:18;;;;;;;1.85;1.38;;;21.10;99.90;;;;;;5031301;28;20060;-62